Time;durP1;ratioP1;P1;durP2;ratioP2;P2;SDS_P1;SDS_P2;PMS_P1;PMS_P2;Temp;Humidity;BMP_temperature;BMP_pressure;BME280_temperature;BME280_humidity;BME280_pressure;Samples;Min_cycle;Max_cycle;Signal;HPM_P1;HPM_P2
2022/02/02 00:00:29;;;;;;;;;;;;;;;1.54;100.00;95458.81;1021140;29;19926;-67
2022/02/02 00:01:01;;;;;;;;;;;;;;;1.54;100.00;95463.16;1020373;29;19921;-68
2022/02/02 00:01:43;;;;;;;;;;;;;;;1.53;100.00;95454.63;1014831;29;19915;-67
2022/02/02 00:02:23;;;;;;;;;;;;;;;1.51;100.00;95448.06;1017407;29;20433;-68
2022/02/02 00:02:58;;;;;;;;;;;;;;;1.52;100.00;95455.63;1021763;29;19915;-68
2022/02/02 00:03:28;;;;;;;;;;;;;;;1.38;100.00;95417.97;1029784;28;19953;-67
2022/02/02 00:04:00;;;;;;;;;;;;;;;1.53;100.00;95452.03;1026901;28;20002;-67
2022/02/02 00:04:31;;;;;;;;;;;;;;;1.55;100.00;95450.03;1023005;29;20387;-67
2022/02/02 00:05:16;;;;;;;;;;;;;;;1.57;100.00;95439.47;1019204;29;19919;-67
2022/02/02 00:06:27;;;;;;;;;;;;;;;1.56;100.00;95446.44;1017444;29;19940;-68
2022/02/02 00:07:36;;;;;;;;;;;;;;;1.56;100.00;95461.94;1018961;29;19922;-66
2022/02/02 00:08:15;;;;;;;;;;;;;;;1.55;100.00;95473.31;1023977;28;19969;-67
2022/02/02 00:08:55;;;;;;;;;;;;;;;1.54;100.00;95453.63;1030312;28;19968;-67
2022/02/02 00:09:26;;;;;;;;;;;;;;;1.52;100.00;95460.00;1031187;28;20800;-67
2022/02/02 00:10:07;;;;;;;;;;;;;;;1.50;100.00;95455.03;1018883;29;19946;-68
2022/02/02 00:12:14;;;;;;;;;;;;;;;1.57;100.00;95453.19;1023131;29;19915;-67
2022/02/02 00:12:49;;;;;;;;;;;;;;;1.42;100.00;95434.63;1026687;28;19914;-67
2022/02/02 00:15:41;;;;;;;;;;;;;;;1.51;100.00;95459.22;1030042;28;19925;-67
2022/02/02 00:17:45;;;;;;;;;;;;;;;1.49;100.00;95471.56;1023433;29;19915;-67
2022/02/02 00:18:55;;;;;;;;;;;;;;;1.53;100.00;95472.72;1026615;28;19910;-68
2022/02/02 00:21:39;;;;;;;;;;;;;;;1.49;100.00;95455.25;1023342;29;20437;-67
2022/02/02 00:22:20;;;;;;;;;;;;;;;1.48;100.00;95457.06;1025954;29;19922;-68
2022/02/02 00:22:53;;;;;;;;;;;;;;;1.49;100.00;95456.03;1025955;28;20440;-68
2022/02/02 00:23:29;;;;;;;;;;;;;;;1.50;100.00;95454.25;1029593;28;19959;-67
2022/02/02 00:24:04;;;;;;;;;;;;;;;1.49;100.00;95463.03;1028934;28;19950;-68
2022/02/02 00:25:16;;;;;;;;;;;;;;;1.54;100.00;95468.31;1018542;29;19914;-68
2022/02/02 00:25:52;;;;;;;;;;;;;;;1.53;100.00;95467.53;1017797;29;19918;-68
2022/02/02 00:26:29;;;;;;;;;;;;;;;1.51;100.00;95479.09;1020615;29;19915;-66
2022/02/02 00:27:04;;;;;;;;;;;;;;;1.54;100.00;95481.25;1025098;29;19911;-67
2022/02/02 00:27:37;;;;;;;;;;;;;;;1.52;100.00;95486.66;1024132;29;20388;-67
2022/02/02 00:28:07;;;;;;;;;;;;;;;1.51;100.00;95492.03;1024223;29;20601;-68
2022/02/02 00:28:42;;;;;;;;;;;;;;;1.49;100.00;95492.25;1020061;29;20003;-68
2022/02/02 00:29:18;;;;;;;;;;;;;;;1.48;100.00;95490.66;1021094;29;19911;-67
2022/02/02 00:29:54;;;;;;;;;;;;;;;1.48;100.00;95490.66;1024093;29;20115;-67
2022/02/02 00:30:29;;;;;;;;;;;;;;;1.48;100.00;95488.09;1025691;28;19910;-67
2022/02/02 00:31:06;;;;;;;;;;;;;;;1.47;100.00;95496.03;1026727;28;19969;-67
2022/02/02 00:31:43;;;;;;;;;;;;;;;1.46;100.00;95504.81;1019846;29;19915;-67
2022/02/02 00:32:53;;;;;;;;;;;;;;;1.47;100.00;95517.50;1019972;29;20370;-67
2022/02/02 00:33:27;;;;;;;;;;;;;;;1.48;100.00;95515.72;1019399;29;19910;-67
2022/02/02 00:34:02;;;;;;;;;;;;;;;1.49;100.00;95518.09;1027761;28;19977;-68
2022/02/02 00:34:33;;;;;;;;;;;;;;;1.49;100.00;95512.94;1029812;28;20319;-66
2022/02/02 00:35:04;;;;;;;;;;;;;;;1.50;100.00;95509.31;1023842;29;19911;-67
2022/02/02 00:35:40;;;;;;;;;;;;;;;1.49;100.00;95505.16;1023558;29;19921;-67
2022/02/02 00:36:19;;;;;;;;;;;;;;;1.46;100.00;95502.22;1023585;28;19997;-67
2022/02/02 00:36:59;;;;;;;;;;;;;;;1.46;100.00;95497.03;1027758;28;19923;-67
2022/02/02 00:37:29;;;;;;;;;;;;;;;1.46;100.00;95489.28;1031774;28;19913;-67
2022/02/02 00:37:59;;;;;;;;;;;;;;;1.45;100.00;95482.53;1034261;28;19949;-67
2022/02/02 00:38:30;;;;;;;;;;;;;;;1.43;100.00;95480.16;1034458;28;19952;-67
2022/02/02 00:39:00;;;;;;;;;;;;;;;1.45;100.00;95472.22;1027608;28;19926;-67
2022/02/02 00:39:30;;;;;;;;;;;;;;;1.46;100.00;95466.81;1027497;28;19922;-68
2022/02/02 00:40:01;;;;;;;;;;;;;;;1.46;100.00;95461.63;1023764;29;19936;-66
2022/02/02 00:40:31;;;;;;;;;;;;;;;1.47;100.00;95463.22;1023835;28;19996;-67
2022/02/02 00:41:02;;;;;;;;;;;;;;;1.47;100.00;95458.03;1031566;28;19918;-66
2022/02/02 00:41:32;;;;;;;;;;;;;;;1.49;100.00;95455.25;1031619;28;20579;-68
2022/02/02 00:42:03;;;;;;;;;;;;;;;1.51;100.00;95463.56;1027944;28;19928;-67
2022/02/02 00:42:33;;;;;;;;;;;;;;;1.51;100.00;95466.16;1027522;28;19914;-67
2022/02/02 00:43:04;;;;;;;;;;;;;;;1.51;100.00;95469.56;1029581;28;19932;-67
2022/02/02 00:43:34;;;;;;;;;;;;;;;1.52;100.00;95468.56;1027834;28;20293;-67
2022/02/02 00:44:05;;;;;;;;;;;;;;;1.53;100.00;95471.94;1025878;28;19922;-68
2022/02/02 00:44:41;;;;;;;;;;;;;;;1.55;100.00;95472.50;1024714;28;19918;-68
2022/02/02 00:45:11;;;;;;;;;;;;;;;1.53;100.00;95472.72;1021242;28;19926;-67
2022/02/02 00:45:45;;;;;;;;;;;;;;;1.53;100.00;95477.88;1023671;28;19953;-67
2022/02/02 00:46:15;;;;;;;;;;;;;;;1.53;100.00;95480.47;1025035;28;19910;-68
2022/02/02 00:46:46;;;;;;;;;;;;;;;1.55;100.00;95483.66;1023668;29;19922;-67
2022/02/02 00:47:22;;;;;;;;;;;;;;;1.54;100.00;95486.44;1016413;29;19927;-67
2022/02/02 00:47:53;;;;;;;;;;;;;;;1.52;100.00;95491.81;1021104;29;20426;-67
2022/02/02 00:48:26;;;;;;;;;;;;;;;1.53;100.00;95475.28;1023588;29;19918;-67
2022/02/02 00:49:00;;;;;;;;;;;;;;;1.54;100.00;95463.16;1027923;28;19969;-67
2022/02/02 00:49:31;;;;;;;;;;;;;;;1.54;100.00;95468.31;1035769;28;20577;-67
2022/02/02 00:50:02;;;;;;;;;;;;;;;1.54;100.00;95473.50;1031756;28;19917;-67
2022/02/02 00:50:32;;;;;;;;;;;;;;;1.53;100.00;95464.16;1028974;28;19922;-67
2022/02/02 00:51:03;;;;;;;;;;;;;;;1.49;100.00;95461.22;1031632;28;19922;-67
2022/02/02 00:51:46;;;;;;;;;;;;;;;1.52;100.00;95465.97;1031596;28;20405;-67
2022/02/02 00:52:17;;;;;;;;;;;;;;;1.49;100.00;95461.22;1023654;29;20407;-67
2022/02/02 00:52:51;;;;;;;;;;;;;;;1.49;100.00;95456.03;1020994;29;19919;-63
2022/02/02 00:53:21;;;;;;;;;;;;;;;1.50;100.00;95467.97;1021125;28;19923;-67
2022/02/02 00:53:52;;;;;;;;;;;;;;;1.49;100.00;95471.56;1019784;29;19919;-66
2022/02/02 00:54:23;;;;;;;;;;;;;;;1.49;100.00;95461.22;1020410;29;19923;-66
2022/02/02 00:54:53;;;;;;;;;;;;;;;1.51;100.00;95461.81;1027444;28;19925;-67
2022/02/02 00:55:24;;;;;;;;;;;;;;;1.53;100.00;95459.00;1028146;28;19933;-67
2022/02/02 00:55:55;;;;;;;;;;;;;;;1.51;100.00;95459.22;1031621;28;19964;-67
2022/02/02 00:56:25;;;;;;;;;;;;;;;1.51;100.00;95454.06;1026207;28;19925;-67
2022/02/02 00:56:55;;;;;;;;;;;;;;;1.53;100.00;95452.03;1023450;29;20384;-66
2022/02/02 00:57:28;;;;;;;;;;;;;;;1.51;100.00;95443.72;1012145;29;19916;-66
2022/02/02 00:57:58;;;;;;;;;;;;;;;1.53;100.00;95453.81;1020013;29;19926;-67
2022/02/02 00:58:29;;;;;;;;;;;;;;;1.53;100.00;95443.47;1020012;29;19930;-67
2022/02/02 00:58:59;;;;;;;;;;;;;;;1.53;100.00;95446.84;1020270;28;19923;-67
2022/02/02 00:59:29;;;;;;;;;;;;;;;1.55;100.00;95444.88;1027491;28;19918;-67
2022/02/02 01:00:00;;;;;;;;;;;;;;;1.58;100.00;95441.84;1025468;28;19922;-66
2022/02/02 01:00:30;;;;;;;;;;;;;;;1.59;100.00;95451.19;1029499;28;20342;-67
2022/02/02 01:01:00;;;;;;;;;;;;;;;1.60;100.00;95452.75;1031916;28;19928;-67
2022/02/02 01:01:30;;;;;;;;;;;;;;;1.60;100.00;95442.41;1035528;28;19930;-67
2022/02/02 01:02:01;;;;;;;;;;;;;;;1.60;100.00;95452.75;1035722;28;19928;-66
2022/02/02 01:02:31;;;;;;;;;;;;;;;1.59;100.00;95451.19;1031557;28;19953;-66
2022/02/02 01:03:01;;;;;;;;;;;;;;;1.58;100.00;95449.63;1031155;28;19949;-67
2022/02/02 01:03:33;;;;;;;;;;;;;;;1.57;100.00;95450.59;1031634;28;19968;-66
2022/02/02 01:04:03;;;;;;;;;;;;;;;1.57;100.00;95445.41;1027769;28;20328;-67
2022/02/02 01:04:33;;;;;;;;;;;;;;;1.56;100.00;95443.84;1031680;28;19929;-66
2022/02/02 01:05:04;;;;;;;;;;;;;;;1.57;100.00;95439.47;1023548;29;19989;-67
2022/02/02 01:05:34;;;;;;;;;;;;;;;1.58;100.00;95434.09;1023542;28;20005;-67
2022/02/02 01:06:07;;;;;;;;;;;;;;;1.61;100.00;95433.66;1027563;28;20016;-67
2022/02/02 01:06:43;;;;;;;;;;;;;;;1.61;100.00;95438.84;1023210;28;20021;-63
2022/02/02 01:07:38;;;;;;;;;;;;;;;1.63;100.00;95444.56;1027607;28;19949;-67
2022/02/02 01:10:01;;;;;;;;;;;;;;;1.62;100.00;95424.91;1031530;28;20555;-66
2022/02/02 01:11:42;;;;;;;;;;;;;;;1.68;100.00;95438.78;1035833;28;19945;-66
2022/02/02 01:13:06;;;;;;;;;;;;;;;1.65;100.00;95440.00;1034967;28;20008;-67
2022/02/02 01:18:08;;;;;;;;;;;;;;;1.68;100.00;95459.47;1036122;28;19917;-67
2022/02/02 01:18:47;;;;;;;;;;;;;;;1.66;100.00;95445.94;1035528;28;19922;-67
2022/02/02 01:19:36;;;;;;;;;;;;;;;1.64;100.00;95460.88;1035895;28;19925;-66
2022/02/02 01:21:42;;;;;;;;;;;;;;;1.65;100.00;95444.38;1035541;28;19929;-66
2022/02/02 01:28:14;;;;;;;;;;;;;;;1.61;100.00;95450.97;1033421;28;19910;-67
2022/02/02 01:28:45;;;;;;;;;;;;;;;1.62;100.00;95455.16;1035221;28;20395;-67
2022/02/02 01:29:15;;;;;;;;;;;;;;;1.64;100.00;95453.13;1029042;28;19973;-66
2022/02/02 01:29:45;;;;;;;;;;;;;;;1.63;100.00;95447.16;1031681;28;20566;-67
2022/02/02 01:30:16;;;;;;;;;;;;;;;1.63;100.00;95443.78;1031598;28;19922;-66
2022/02/02 01:30:46;;;;;;;;;;;;;;;1.64;100.00;95446.19;1027164;28;19918;-67
2022/02/02 01:31:17;;;;;;;;;;;;;;;1.62;100.00;95443.00;1023726;29;19925;-66
2022/02/02 01:31:47;;;;;;;;;;;;;;;1.62;100.00;95434.47;1023711;28;19923;-67
2022/02/02 01:32:17;;;;;;;;;;;;;;;1.59;100.00;95430.50;1027740;28;19914;-67
2022/02/02 01:32:48;;;;;;;;;;;;;;;1.61;100.00;95433.66;1030610;28;19910;-65
2022/02/02 01:33:18;;;;;;;;;;;;;;;1.60;100.00;95424.31;1027452;28;19910;-67
2022/02/02 01:33:49;;;;;;;;;;;;;;;1.62;100.00;95430.06;1027553;28;20668;-67
2022/02/02 01:34:19;;;;;;;;;;;;;;;1.62;100.00;95424.91;1027180;28;19920;-66
2022/02/02 01:34:49;;;;;;;;;;;;;;;1.62;100.00;95431.88;1018994;29;19925;-66
2022/02/02 01:35:20;;;;;;;;;;;;;;;1.58;100.00;95426.34;1018874;29;19915;-67
2022/02/02 01:35:50;;;;;;;;;;;;;;;1.58;100.00;95434.09;1019326;29;19919;-67
2022/02/02 01:36:21;;;;;;;;;;;;;;;1.58;100.00;95426.34;1019702;29;20003;-67
2022/02/02 01:36:51;;;;;;;;;;;;;;;1.60;100.00;95426.91;1023668;28;20009;-67
2022/02/02 01:37:21;;;;;;;;;;;;;;;1.61;100.00;95428.50;1027474;28;20613;-66
2022/02/02 01:37:52;;;;;;;;;;;;;;;1.60;100.00;95421.72;1023704;28;19965;-66
2022/02/02 01:38:25;;;;;;;;;;;;;;;1.60;100.00;95413.97;1027518;28;20339;-66
2022/02/02 01:38:56;;;;;;;;;;;;;;;1.60;100.00;95416.56;1031467;28;20044;-66
2022/02/02 01:39:28;;;;;;;;;;;;;;;1.61;100.00;95418.16;1031919;28;19909;-67
2022/02/02 01:40:04;;;;;;;;;;;;;;;1.63;100.00;95412.75;1031557;28;19981;-67
2022/02/02 01:40:40;;;;;;;;;;;;;;;1.62;100.00;95418.94;1031805;28;19917;-66
2022/02/02 01:41:19;;;;;;;;;;;;;;;1.61;100.00;95418.16;1027248;28;20668;-68
2022/02/02 01:41:49;;;;;;;;;;;;;;;1.59;100.00;95417.56;1023881;29;20013;-66
2022/02/02 01:42:20;;;;;;;;;;;;;;;1.60;100.00;95419.13;1021392;29;19919;-66
2022/02/02 01:43:08;;;;;;;;;;;;;;;1.63;100.00;95421.31;1023894;28;19981;-66
2022/02/02 01:43:48;;;;;;;;;;;;;;;1.64;100.00;95422.91;1027191;28;19949;-67
2022/02/02 01:44:37;;;;;;;;;;;;;;;1.62;100.00;95411.97;1031445;28;19922;-66
2022/02/02 01:45:18;;;;;;;;;;;;;;;1.63;100.00;95416.13;1029973;28;19922;-67
2022/02/02 01:45:55;;;;;;;;;;;;;;;1.62;100.00;95409.38;1027688;28;20213;-67
2022/02/02 01:46:31;;;;;;;;;;;;;;;1.64;100.00;95414.34;1027613;28;20451;-67
2022/02/02 01:47:02;;;;;;;;;;;;;;;1.63;100.00;95417.94;1030765;28;19922;-66
2022/02/02 01:47:42;;;;;;;;;;;;;;;1.61;100.00;95407.00;1033809;28;19918;-67
2022/02/02 01:48:59;;;;;;;;;;;;;;;1.62;100.00;95417.16;1027642;28;19921;-67
2022/02/02 01:50:13;;;;;;;;;;;;;;;1.61;100.00;95410.41;1019397;29;19935;-67
2022/02/02 01:50:24;;;;;;;;;;;;;;;1.62;100.00;95413.78;1020009;29;19918;-67
2022/02/02 01:52:25;;;;;;;;;;;;;;;1.59;100.00;95414.97;1027370;28;20438;-67
2022/02/02 01:53:15;;;;;;;;;;;;;;;1.62;100.00;95424.91;1031993;28;20412;-67
2022/02/02 01:54:18;;;;;;;;;;;;;;;1.63;100.00;95418.72;1031061;28;19917;-67
2022/02/02 01:54:55;;;;;;;;;;;;;;;1.62;100.00;95424.91;1026556;28;19965;-67
2022/02/02 01:55:32;;;;;;;;;;;;;;;1.60;100.00;95419.13;1026486;28;20016;-67
2022/02/02 01:56:02;;;;;;;;;;;;;;;1.61;100.00;95420.75;1027618;28;19976;-67
2022/02/02 01:56:32;;;;;;;;;;;;;;;1.64;100.00;95422.09;1027372;28;19918;-67
2022/02/02 01:57:15;;;;;;;;;;;;;;;1.62;100.00;95427.50;1028476;28;19981;-65
2022/02/02 01:58:15;;;;;;;;;;;;;;;1.63;100.00;95420.50;1030113;28;19961;-66
2022/02/02 01:59:03;;;;;;;;;;;;;;;1.63;100.00;95421.31;1027815;28;19965;-67
2022/02/02 01:59:39;;;;;;;;;;;;;;;1.64;100.00;95422.09;1028060;28;19957;-66
2022/02/02 02:00:11;;;;;;;;;;;;;;;1.64;100.00;95422.09;1023721;29;19914;-67
2022/02/02 02:00:42;;;;;;;;;;;;;;;1.61;100.00;95420.75;1027173;28;20025;-67
2022/02/02 02:01:12;;;;;;;;;;;;;;;1.63;100.00;95416.13;1029221;28;19929;-66
2022/02/02 02:01:42;;;;;;;;;;;;;;;1.66;100.00;95425.25;1032635;28;19921;-66
2022/02/02 02:02:13;;;;;;;;;;;;;;;1.64;100.00;95428.06;1035828;28;19940;-67
2022/02/02 02:02:43;;;;;;;;;;;;;;;1.65;100.00;95424.47;1031621;28;20445;-65
2022/02/02 02:03:13;;;;;;;;;;;;;;;1.65;100.00;95423.69;1027293;28;19977;-65
2022/02/02 02:03:43;;;;;;;;;;;;;;;1.69;100.00;95431.81;1027862;28;19922;-66
2022/02/02 02:04:14;;;;;;;;;;;;;;;1.67;100.00;95426.84;1027737;28;19980;-66
2022/02/02 02:04:44;;;;;;;;;;;;;;;1.67;100.00;95428.63;1031867;28;19980;-65
2022/02/02 02:05:14;;;;;;;;;;;;;;;1.54;100.00;95403.69;1036003;28;20012;-65
2022/02/02 02:05:45;;;;;;;;;;;;;;;1.67;100.00;95426.03;1035840;28;19924;-66
2022/02/02 02:06:17;;;;;;;;;;;;;;;1.67;100.00;95421.66;1035582;28;19922;-64
2022/02/02 02:06:48;;;;;;;;;;;;;;;1.67;100.00;95424.25;1034302;28;19925;-65
2022/02/02 02:07:18;;;;;;;;;;;;;;;1.66;100.00;95420.09;1035770;28;19911;-67
2022/02/02 02:07:48;;;;;;;;;;;;;;;1.69;100.00;95424.06;1032109;28;20376;-67
2022/02/02 02:08:19;;;;;;;;;;;;;;;1.69;100.00;95424.84;1031560;28;19914;-66
2022/02/02 02:08:49;;;;;;;;;;;;;;;1.75;100.00;95438.72;1031792;28;19913;-67
2022/02/02 02:09:24;;;;;;;;;;;;;;;1.73;100.00;95436.31;1028016;28;19917;-67
2022/02/02 02:09:57;;;;;;;;;;;;;;;1.72;100.00;95434.75;1030967;28;19917;-66
2022/02/02 02:10:28;;;;;;;;;;;;;;;1.73;100.00;95431.16;1028811;28;19914;-67
2022/02/02 02:10:59;;;;;;;;;;;;;;;1.74;100.00;95421.59;1032998;28;19914;-67
2022/02/02 02:11:29;;;;;;;;;;;;;;;1.73;100.00;95414.84;1035704;28;19913;-67
2022/02/02 02:12:00;;;;;;;;;;;;;;;1.73;100.00;95425.19;1031815;28;19928;-66
2022/02/02 02:12:51;;;;;;;;;;;;;;;1.73;100.00;95428.56;1027436;28;19918;-67
2022/02/02 02:14:11;;;;;;;;;;;;;;;1.71;100.00;95422.03;1028122;28;19914;-64
2022/02/02 02:14:40;;;;;;;;;;;;;;;1.79;100.00;95419.97;1031919;28;19910;-66
2022/02/02 02:15:13;;;;;;;;;;;;;;;1.84;100.00;95417.50;1031549;28;20658;-66
2022/02/02 02:15:44;;;;;;;;;;;;;;;1.84;100.00;95419.31;1027592;28;20405;-66
2022/02/02 02:16:14;;;;;;;;;;;;;;;1.86;100.00;95427.66;1019951;29;20006;-65
2022/02/02 02:16:46;;;;;;;;;;;;;;;1.84;100.00;95427.06;1018722;29;19919;-66
2022/02/02 02:17:16;;;;;;;;;;;;;;;1.85;100.00;95423.50;1019719;29;19921;-67
2022/02/02 02:17:47;;;;;;;;;;;;;;;1.84;100.00;95427.84;1020108;29;19933;-66
2022/02/02 02:18:18;;;;;;;;;;;;;;;1.82;100.00;95432.47;1024186;28;19925;-67
2022/02/02 02:18:48;;;;;;;;;;;;;;;1.79;100.00;95432.09;1026389;28;19914;-67
2022/02/02 02:19:21;;;;;;;;;;;;;;;1.80;100.00;95431.88;1023641;29;19914;-67
2022/02/02 02:19:52;;;;;;;;;;;;;;;1.80;100.00;95433.69;1027658;28;20320;-66
2022/02/02 02:20:22;;;;;;;;;;;;;;;1.80;100.00;95438.84;1028586;28;19922;-66
2022/02/02 02:20:54;;;;;;;;;;;;;;;1.78;100.00;95438.28;1027680;28;20439;-67
2022/02/02 02:21:25;;;;;;;;;;;;;;;1.77;100.00;95431.53;1024224;28;19958;-67
2022/02/02 02:21:55;;;;;;;;;;;;;;;1.77;100.00;95428.94;1024137;28;20395;-66
2022/02/02 02:22:30;;;;;;;;;;;;;;;1.76;100.00;95425.56;1028296;28;20407;-64
2022/02/02 02:23:01;;;;;;;;;;;;;;;1.76;100.00;95427.34;1031088;28;19987;-67
2022/02/02 02:23:31;;;;;;;;;;;;;;;1.76;100.00;95433.31;1031885;28;19949;-67
2022/02/02 02:24:02;;;;;;;;;;;;;;;1.75;100.00;95423.19;1031448;28;19952;-67
2022/02/02 02:24:34;;;;;;;;;;;;;;;1.77;100.00;95426.34;1028017;28;20323;-67
2022/02/02 02:25:04;;;;;;;;;;;;;;;1.76;100.00;95430.72;1031670;28;19914;-66
2022/02/02 02:25:37;;;;;;;;;;;;;;;1.75;100.00;95426.56;1027295;28;19922;-66
2022/02/02 02:26:09;;;;;;;;;;;;;;;1.75;100.00;95433.53;1024532;28;20396;-67
2022/02/02 02:26:41;;;;;;;;;;;;;;;1.72;100.00;95424.41;1020233;29;19921;-67
2022/02/02 02:27:14;;;;;;;;;;;;;;;1.73;100.00;95420.03;1020497;29;19974;-67
2022/02/02 02:27:45;;;;;;;;;;;;;;;1.71;100.00;95422.84;1023703;29;19914;-66
2022/02/02 02:28:30;;;;;;;;;;;;;;;1.70;100.00;95423.81;1028624;28;20595;-68
2022/02/02 02:29:21;;;;;;;;;;;;;;;1.73;100.00;95435.53;1025879;28;20001;-66
2022/02/02 02:30:39;;;;;;;;;;;;;;;1.74;100.00;95437.91;1031632;28;19913;-66
2022/02/02 02:31:25;;;;;;;;;;;;;;;1.75;100.00;95433.53;1036009;28;19921;-67
2022/02/02 02:33:53;;;;;;;;;;;;;;;1.73;100.00;95436.31;1035570;28;20407;-67
2022/02/02 02:35:14;;;;;;;;;;;;;;;1.73;100.00;95435.53;1039568;28;19944;-67
2022/02/02 02:36:18;;;;;;;;;;;;;;;1.72;100.00;95439.94;1039506;28;19925;-66
2022/02/02 02:37:35;;;;;;;;;;;;;;;1.70;100.00;95444.50;1031768;28;19918;-67
2022/02/02 02:39:29;;;;;;;;;;;;;;;1.74;100.00;95430.16;1036219;28;19969;-67
2022/02/02 02:40:18;;;;;;;;;;;;;;;1.72;100.00;95423.63;1035612;28;19921;-67
2022/02/02 02:56:21;;;;;;;;;;;;;;;1.81;100.00;95427.50;1035868;28;19967;-67
2022/02/02 02:56:51;;;;;;;;;;;;;;;1.80;100.00;95431.09;1035932;28;20369;-67
2022/02/02 02:57:25;;;;;;;;;;;;;;;1.80;100.00;95434.47;1028042;28;19918;-66
2022/02/02 02:58:18;;;;;;;;;;;;;;;1.79;100.00;95425.13;1027511;28;19922;-67
2022/02/02 02:59:04;;;;;;;;;;;;;;;1.78;100.00;95426.16;1023683;29;19922;-67
2022/02/02 02:59:45;;;;;;;;;;;;;;;1.81;100.00;95428.31;1026824;28;19918;-65
2022/02/02 03:02:36;;;;;;;;;;;;;;;1.81;100.00;95427.50;1025010;28;20467;-67
2022/02/02 03:30:05;;;;;;;;;;;;;;;2.09;100.00;95427.78;1027198;28;19920;-66
2022/02/02 03:30:55;;;;;;;;;;;;;;;2.07;100.00;95427.19;1026485;28;20038;-67
2022/02/02 03:32:41;;;;;;;;;;;;;;;2.07;100.00;95427.19;1027320;28;19961;-66
2022/02/02 03:35:15;;;;;;;;;;;;;;;2.10;100.00;95424.19;1028364;28;20527;-67
2022/02/02 03:50:16;;;;;;;;;;;;;;;2.11;100.00;95433.56;1034943;28;19981;-67
2022/02/02 03:51:22;;;;;;;;;;;;;;;2.13;100.00;95430.72;1038765;28;19910;-70
2022/02/02 03:55:33;;;;;;;;;;;;;;;2.19;100.00;95435.03;1027119;28;19925;-67
2022/02/02 03:59:30;;;;;;;;;;;;;;;2.21;100.00;95440.78;1033508;28;19925;-67
2022/02/02 04:02:47;;;;;;;;;;;;;;;2.27;100.00;95454.66;1023167;29;20805;-68
2022/02/02 04:05:47;;;;;;;;;;;;;;;2.24;100.00;95455.09;1015779;29;19949;-68
2022/02/02 04:06:21;;;;;;;;;;;;;;;2.23;100.00;95445.75;1016756;29;19908;-66
2022/02/02 04:07:08;;;;;;;;;;;;;;;2.23;100.00;95443.16;1013652;29;19962;-64
2022/02/02 04:07:49;;;;;;;;;;;;;;;2.22;100.00;95431.25;1019646;28;19918;-67
2022/02/02 04:08:31;;;;;;;;;;;;;;;2.19;100.00;95437.63;1028178;28;19906;-67
2022/02/02 04:09:01;;;;;;;;;;;;;;;2.18;100.00;95438.66;1027873;28;20004;-66
2022/02/02 04:09:35;;;;;;;;;;;;;;;2.20;100.00;95441.00;1030929;28;19913;-66
2022/02/02 04:10:05;;;;;;;;;;;;;;;2.19;100.00;95436.84;1023746;29;19995;-67
2022/02/02 04:10:35;;;;;;;;;;;;;;;2.19;100.00;95440.22;1024381;28;20340;-68
2022/02/02 04:11:23;;;;;;;;;;;;;;;2.23;100.00;95443.16;1027814;28;20494;-67
2022/02/02 04:15:18;;;;;;;;;;;;;;;2.17;100.00;95428.50;1029637;28;19974;-67
2022/02/02 04:51:57;;;;;;;;;;;;;;;2.30;100.00;95447.25;1035913;28;19953;-68
2022/02/02 04:55:56;;;;;;;;;;;;;;;2.29;100.00;95450.84;1031762;28;19918;-67
2022/02/02 04:59:18;;;;;;;;;;;;;;;2.33;100.00;95449.41;1031435;28;19921;-67
2022/02/02 05:00:19;;;;;;;;;;;;;;;2.31;100.00;95456.63;1031956;28;20332;-69
2022/02/02 05:07:12;;;;;;;;;;;;;;;2.24;100.00;95457.69;1029700;28;19909;-68
2022/02/02 05:08:53;;;;;;;;;;;;;;;2.18;100.00;95454.19;1027431;28;19918;-68
2022/02/02 05:08:59;;;;;;;;;;;;;;;2.16;100.00;95445.03;1026229;28;20395;-68
2022/02/02 05:09:54;;;;;;;;;;;;;;;2.13;100.00;95446.25;1033919;28;20024;-68
2022/02/02 05:10:35;;;;;;;;;;;;;;;2.14;100.00;95437.47;1035731;28;19910;-68
2022/02/02 05:16:56;;;;;;;;;;;;;;;2.19;100.00;95435.03;1031490;28;20399;-66
2022/02/02 05:20:01;;;;;;;;;;;;;;;2.20;100.00;95430.66;1031706;28;19992;-67
2022/02/02 05:24:52;;;;;;;;;;;;;;;2.15;100.00;95433.09;1019517;29;19911;-67
2022/02/02 05:41:22;;;;;;;;;;;;;;;2.44;100.00;95449.69;1032394;28;19918;-66
2022/02/02 05:43:44;;;;;;;;;;;;;;;2.48;100.00;95454.22;1029296;28;19977;-65
2022/02/02 05:44:32;;;;;;;;;;;;;;;2.48;100.00;95453.41;1030615;28;20413;-67
2022/02/02 05:49:20;;;;;;;;;;;;;;;2.49;100.00;95471.34;1031689;28;20330;-67
2022/02/02 05:51:44;;;;;;;;;;;;;;;2.52;100.00;95460.53;1027326;28;20017;-67
2022/02/02 05:52:15;;;;;;;;;;;;;;;2.49;100.00;95455.78;1030803;28;20012;-67
2022/02/02 05:52:45;;;;;;;;;;;;;;;2.50;100.00;95467.72;1031810;28;19929;-64
2022/02/02 05:53:15;;;;;;;;;;;;;;;2.52;100.00;95472.69;1035381;28;19929;-67
2022/02/02 05:53:46;;;;;;;;;;;;;;;2.52;100.00;95481.25;1035389;28;19921;-67
2022/02/02 05:54:16;;;;;;;;;;;;;;;2.52;100.00;95480.47;1027582;28;20441;-66
2022/02/02 05:54:47;;;;;;;;;;;;;;;2.56;100.00;95492.75;1027590;28;19918;-66
2022/02/02 05:55:17;;;;;;;;;;;;;;;2.54;100.00;95492.16;1027442;28;19922;-66
2022/02/02 05:55:48;;;;;;;;;;;;;;;2.55;100.00;95491.19;1027547;28;19922;-66
2022/02/02 05:56:18;;;;;;;;;;;;;;;2.52;100.00;95499.38;1027627;28;20368;-67
2022/02/02 05:56:49;;;;;;;;;;;;;;;2.50;100.00;95503.97;1031480;28;19936;-66
2022/02/02 05:57:19;;;;;;;;;;;;;;;2.49;100.00;95512.75;1031669;28;19921;-66
2022/02/02 05:57:50;;;;;;;;;;;;;;;2.50;100.00;95522.09;1031580;28;19925;-66
2022/02/02 05:58:24;;;;;;;;;;;;;;;2.50;100.00;95518.72;1031335;28;19949;-66
2022/02/02 05:58:54;;;;;;;;;;;;;;;2.51;100.00;95517.72;1027819;28;19918;-65
2022/02/02 05:59:25;;;;;;;;;;;;;;;2.49;100.00;95514.56;1027375;28;19914;-66
2022/02/02 05:59:56;;;;;;;;;;;;;;;2.55;100.00;95514.50;1024004;28;19946;-66
2022/02/02 06:00:27;;;;;;;;;;;;;;;2.55;100.00;95505.94;1023617;28;20479;-66
2022/02/02 06:00:58;;;;;;;;;;;;;;;2.52;100.00;95507.16;1027643;28;19925;-65
2022/02/02 06:01:28;;;;;;;;;;;;;;;2.54;100.00;95509.50;1027726;28;19925;-66
2022/02/02 06:01:58;;;;;;;;;;;;;;;2.55;100.00;95516.28;1031343;28;19967;-66
2022/02/02 06:02:32;;;;;;;;;;;;;;;2.58;100.00;95521.81;1035134;28;20199;-66
2022/02/02 06:03:04;;;;;;;;;;;;;;;2.64;100.00;95534.91;1035448;28;19940;-66
2022/02/02 06:03:40;;;;;;;;;;;;;;;2.66;100.00;95525.13;1035158;28;19965;-66
2022/02/02 06:04:11;;;;;;;;;;;;;;;2.65;100.00;95526.94;1035379;28;20000;-67
2022/02/02 06:04:45;;;;;;;;;;;;;;;2.70;100.00;95508.91;1031483;28;20108;-67
2022/02/02 06:05:15;;;;;;;;;;;;;;;2.72;100.00;95513.91;1031240;28;19929;-66
2022/02/02 06:05:45;;;;;;;;;;;;;;;2.73;100.00;95499.94;1031451;28;19922;-67
2022/02/02 06:06:16;;;;;;;;;;;;;;;2.72;100.00;95522.47;1031409;28;19921;-66
2022/02/02 06:06:47;;;;;;;;;;;;;;;2.73;100.00;95529.22;1029959;28;19969;-65
2022/02/02 06:07:18;;;;;;;;;;;;;;;2.73;100.00;95528.44;1031639;28;19922;-67
2022/02/02 06:07:52;;;;;;;;;;;;;;;2.74;100.00;95540.34;1035414;28;19924;-66
2022/02/02 06:08:22;;;;;;;;;;;;;;;2.75;100.00;95541.94;1035495;28;19909;-67
2022/02/02 06:08:53;;;;;;;;;;;;;;;2.76;100.00;95553.91;1031548;28;19926;-66
2022/02/02 06:09:28;;;;;;;;;;;;;;;2.77;100.00;95545.91;1031530;28;19918;-67
2022/02/02 06:09:59;;;;;;;;;;;;;;;2.78;100.00;95541.50;1027151;28;19914;-64
2022/02/02 06:10:29;;;;;;;;;;;;;;;2.75;100.00;95528.97;1027283;28;19929;-66
2022/02/02 06:11:03;;;;;;;;;;;;;;;2.76;100.00;95533.16;1027918;28;19953;-64
2022/02/02 06:11:34;;;;;;;;;;;;;;;2.76;100.00;95522.81;1028722;28;20472;-66
2022/02/02 06:12:04;;;;;;;;;;;;;;;2.75;100.00;95516.84;1027190;28;19965;-66
2022/02/02 06:12:35;;;;;;;;;;;;;;;2.77;100.00;95514.03;1027979;28;19918;-66
2022/02/02 06:13:05;;;;;;;;;;;;;;;2.76;100.00;95515.81;1026904;28;19926;-68
2022/02/02 06:13:42;;;;;;;;;;;;;;;2.77;100.00;95514.03;1027730;28;20479;-66
2022/02/02 06:14:12;;;;;;;;;;;;;;;2.74;100.00;95519.63;1031346;28;20506;-66
2022/02/02 06:14:42;;;;;;;;;;;;;;;2.74;100.00;95524.81;1024274;28;19914;-67
2022/02/02 06:15:15;;;;;;;;;;;;;;;2.70;100.00;95529.63;1027415;28;20335;-66
2022/02/02 06:15:46;;;;;;;;;;;;;;;2.71;100.00;95517.47;1027294;28;19966;-66
2022/02/02 06:16:17;;;;;;;;;;;;;;;2.72;100.00;95521.66;1024165;28;19930;-67